Active — NRTF — position and weather

sailwx.info

Track history (hours):
 
Tides and Currents Weather Stations Pressure Air Temp Water Temp Dewpoint Dewpoint Depression Visibility Wind Speed Wind Dir Waves Ship Positions

Active

Last reported at 2018-Jan-02 07:00 UTC. Time now 2018-Jan-19 13:31 UTC.
Position N 37°18' W 122°44'.
Warning: this ship's position is 17 days out of date.

Type: Law enforcement. MMSI: 367269000.

Date/timePositionNaut miles runAvg speedWind from/ knotsBaromVisibWave heightAir tempDewpointWater temp
2018-Jan-02 07:00N 37°18' W 122°44'612.3
2018-Jan-02 06:30N 37°24' W 122°43'612.1
2018-Jan-02 06:00N 37°30' W 122°43'612.2
2018-Jan-02 05:30N 37°36' W 122°44'1211.7
2018-Jan-02 04:30N 37°47' W 122°36'612.6
2018-Jan-02 04:00N 37°49' W 122°29'4 8.6
2018-Jan-02 03:30N 37°49' W 122°23'5 9.4
2018-Jan-02 03:01N 37°48' W 122°18'2 4.2
2018-Jan-02 02:31N 37°47' W 122°15'0 0.6
2018-Jan-02 01:58N 37°47' W 122°15'0 0.0
2018-Jan-02 01:28N 37°47' W 122°15'0 0.0
2018-Jan-02 00:58N 37°47' W 122°15'0 0.0
2018-Jan-02 00:16N 37°47' W 122°15'  
2017-Dec-29 18:38N 37°47' W 122°15'0 0.0
2017-Dec-29 18:29N 37°47' W 122°15'0 0.0
2017-Dec-29 17:56N 37°47' W 122°15'0 1.0
2017-Dec-29 17:30N 37°47' W 122°15'2 4.5
2017-Dec-29 17:00N 37°48' W 122°18'3 5.2
2017-Dec-29 16:30N 37°48' W 122°21'4 8.2
2017-Dec-29 16:01N 37°49' W 122°26'815.5
2017-Dec-29 15:31N 37°47' W 122°36'612.9
2017-Dec-29 15:01N 37°47' W 122°44'815.0
2017-Dec-29 14:31N 37°49' W 122°53'815.5
2017-Dec-29 14:00N 37°53' W 123°01'815.6
2017-Dec-29 13:31N 37°57' W 123°10'815.3
2017-Dec-29 13:01N 38°03' W 123°16'815.7
2017-Dec-29 12:31N 38°09' W 123°23'815.8
2017-Dec-29 12:00N 38°15' W 123°29'815.7
2017-Dec-29 11:31N 38°22' W 123°34'815.8
2017-Dec-29 11:00N 38°28' W 123°40'815.8
2017-Dec-29 10:30N 38°35' W 123°46'815.6
2017-Dec-29 10:00N 38°41' W 123°51'815.9
2017-Dec-29 09:30N 38°49' W 123°54'815.6
2017-Dec-29 09:00N 38°56' W 123°57'815.7
2017-Dec-29 08:30N 39°03' W 124°01'815.8
2017-Dec-29 08:00N 39°11' W 124°05'815.7
2017-Dec-29 07:30N 39°18' W 124°08'354 9.7
2017-Dec-27 19:06N 45°12' W 124°21'114.5
2017-Dec-27 19:00N 45°14' W 124°20'713.8
2017-Dec-27 18:30N 45°20' W 124°17'713.2
2017-Dec-27 18:01N 45°27' W 124°14'3 6.3
2017-Dec-27 17:31N 45°30' W 124°13'2 4.5
2017-Dec-27 17:00N 45°32' W 124°13'611.7
2017-Dec-27 16:31N 45°38' W 124°13'611.7
2017-Dec-27 16:01N 45°44' W 124°14'611.9
2017-Dec-27 15:30N 45°49' W 124°16'612.0
2017-Dec-27 15:01N 45°55' W 124°18'612.1
2017-Dec-27 14:31N 46°01' W 124°19'611.4
2017-Dec-27 14:00N 46°07' W 124°19'611.6
2017-Dec-27 13:31N 46°12' W 124°15'610.9
2017-Dec-27 13:00N 46°17' W 124°19'510.5
2017-Dec-27 12:31N 46°22' W 124°20'510.8
2017-Dec-27 12:01N 46°27' W 124°22'611.2
2017-Dec-27 11:31N 46°33' W 124°23'611.6
2017-Dec-27 11:01N 46°39' W 124°25'611.9
2017-Dec-27 10:31N 46°45' W 124°27'612.0
2017-Dec-27 10:01N 46°50' W 124°28'612.0
2017-Dec-27 09:31N 46°56' W 124°30'611.7
2017-Dec-27 08:58N 47°02' W 124°32'7211.7
2017-Dec-27 02:50N 48°12' W 124°59'511.5
2017-Dec-27 02:25N 48°17' W 124°58'511.4
2017-Dec-27 02:00N 48°22' W 124°57'510.4
2017-Dec-27 01:30N 48°26' W 124°53'713.6
2017-Dec-27 01:00N 48°26' W 124°43'714.8
2017-Dec-27 00:30N 48°23' W 124°33'815.2
2017-Dec-27 00:00N 48°20' W 124°22'815.4
2017-Dec-26 23:30N 48°17' W 124°12'714.6
2017-Dec-26 23:00N 48°14' W 124°02'815.0
2017-Dec-26 22:27N 48°12' W 123°50'715.8
2017-Dec-26 22:00N 48°12' W 123°39'612.1
2017-Dec-26 21:28N 48°11' W 123°29'1 3.2
2017-Dec-26 21:00N 48°10' W 123°28'4 6.9
2017-Dec-26 20:30N 48°08' W 123°23'  
Track history (hours):
 
Tides and Currents Weather Stations Pressure Air Temp Water Temp Dewpoint Dewpoint Depression Visibility Wind Speed Wind Dir Waves Ship Positions

Active

Last reported at 2018-Jan-02 07:00 UTC. Time now 2018-Jan-19 13:31 UTC.
Position N 37°18' W 122°44'.
Warning: this ship's position is 17 days out of date.

Type: Law enforcement. MMSI: 367269000.

Date/timePositionNaut miles runAvg speedWind from/ knotsBaromVisibWave heightAir tempDewpointWater temp
2018-Jan-02 07:00N 37°18' W 122°44'612.3
2018-Jan-02 06:30N 37°24' W 122°43'612.1
2018-Jan-02 06:00N 37°30' W 122°43'612.2
2018-Jan-02 05:30N 37°36' W 122°44'1211.7
2018-Jan-02 04:30N 37°47' W 122°36'612.6
2018-Jan-02 04:00N 37°49' W 122°29'4 8.6
2018-Jan-02 03:30N 37°49' W 122°23'5 9.4
2018-Jan-02 03:01N 37°48' W 122°18'2 4.2
2018-Jan-02 02:31N 37°47' W 122°15'0 0.6
2018-Jan-02 01:58N 37°47' W 122°15'0 0.0
2018-Jan-02 01:28N 37°47' W 122°15'0 0.0
2018-Jan-02 00:58N 37°47' W 122°15'0 0.0
2018-Jan-02 00:16N 37°47' W 122°15'  
2017-Dec-29 18:38N 37°47' W 122°15'0 0.0
2017-Dec-29 18:29N 37°47' W 122°15'0 0.0
2017-Dec-29 17:56N 37°47' W 122°15'0 1.0
2017-Dec-29 17:30N 37°47' W 122°15'2 4.5
2017-Dec-29 17:00N 37°48' W 122°18'3 5.2
2017-Dec-29 16:30N 37°48' W 122°21'4 8.2
2017-Dec-29 16:01N 37°49' W 122°26'815.5
2017-Dec-29 15:31N 37°47' W 122°36'612.9
2017-Dec-29 15:01N 37°47' W 122°44'815.0
2017-Dec-29 14:31N 37°49' W 122°53'815.5
2017-Dec-29 14:00N 37°53' W 123°01'815.6
2017-Dec-29 13:31N 37°57' W 123°10'815.3
2017-Dec-29 13:01N 38°03' W 123°16'815.7
2017-Dec-29 12:31N 38°09' W 123°23'815.8
2017-Dec-29 12:00N 38°15' W 123°29'815.7
2017-Dec-29 11:31N 38°22' W 123°34'815.8
2017-Dec-29 11:00N 38°28' W 123°40'815.8
2017-Dec-29 10:30N 38°35' W 123°46'815.6
2017-Dec-29 10:00N 38°41' W 123°51'815.9
2017-Dec-29 09:30N 38°49' W 123°54'815.6
2017-Dec-29 09:00N 38°56' W 123°57'815.7
2017-Dec-29 08:30N 39°03' W 124°01'815.8
2017-Dec-29 08:00N 39°11' W 124°05'815.7
2017-Dec-29 07:30N 39°18' W 124°08'354 9.7
2017-Dec-27 19:06N 45°12' W 124°21'114.5
2017-Dec-27 19:00N 45°14' W 124°20'713.8
2017-Dec-27 18:30N 45°20' W 124°17'713.2
2017-Dec-27 18:01N 45°27' W 124°14'3 6.3
2017-Dec-27 17:31N 45°30' W 124°13'2 4.5
2017-Dec-27 17:00N 45°32' W 124°13'611.7
2017-Dec-27 16:31N 45°38' W 124°13'611.7
2017-Dec-27 16:01N 45°44' W 124°14'611.9
2017-Dec-27 15:30N 45°49' W 124°16'612.0
2017-Dec-27 15:01N 45°55' W 124°18'612.1
2017-Dec-27 14:31N 46°01' W 124°19'611.4
2017-Dec-27 14:00N 46°07' W 124°19'611.6
2017-Dec-27 13:31N 46°12' W 124°15'610.9
2017-Dec-27 13:00N 46°17' W 124°19'510.5
2017-Dec-27 12:31N 46°22' W 124°20'510.8
2017-Dec-27 12:01N 46°27' W 124°22'611.2
2017-Dec-27 11:31N 46°33' W 124°23'611.6
2017-Dec-27 11:01N 46°39' W 124°25'611.9
2017-Dec-27 10:31N 46°45' W 124°27'612.0
2017-Dec-27 10:01N 46°50' W 124°28'612.0
2017-Dec-27 09:31N 46°56' W 124°30'611.7
2017-Dec-27 08:58N 47°02' W 124°32'7211.7
2017-Dec-27 02:50N 48°12' W 124°59'511.5
2017-Dec-27 02:25N 48°17' W 124°58'511.4
2017-Dec-27 02:00N 48°22' W 124°57'510.4
2017-Dec-27 01:30N 48°26' W 124°53'713.6
2017-Dec-27 01:00N 48°26' W 124°43'714.8
2017-Dec-27 00:30N 48°23' W 124°33'815.2
2017-Dec-27 00:00N 48°20' W 124°22'815.4
2017-Dec-26 23:30N 48°17' W 124°12'714.6
2017-Dec-26 23:00N 48°14' W 124°02'815.0
2017-Dec-26 22:27N 48°12' W 123°50'715.8
2017-Dec-26 22:00N 48°12' W 123°39'612.1
2017-Dec-26 21:28N 48°11' W 123°29'1 3.2
2017-Dec-26 21:00N 48°10' W 123°28'4 6.9
2017-Dec-26 20:30N 48°08' W 123°23'  

Dump ship's entire track history